createdAt,value
2018-09-09T00:00:22.846Z,14.70
2018-09-09T00:02:51.960Z,14.70
2018-09-09T00:05:21.560Z,14.60
2018-09-09T00:07:50.506Z,14.60
2018-09-09T00:10:19.458Z,14.70
2018-09-09T00:12:48.399Z,14.60
2018-09-09T00:15:17.486Z,14.60
2018-09-09T00:17:46.458Z,14.50
2018-09-09T00:20:15.506Z,14.50
2018-09-09T00:22:44.460Z,14.40
2018-09-09T00:25:13.439Z,14.40
2018-09-09T00:27:42.411Z,14.40
2018-09-09T00:30:11.418Z,14.30
2018-09-09T00:32:40.481Z,14.30
2018-09-09T00:35:09.474Z,14.30
2018-09-09T00:37:38.520Z,14.30
2018-09-09T00:40:07.514Z,14.30
2018-09-09T00:42:36.500Z,14.20
2018-09-09T00:45:05.796Z,14.20
2018-09-09T00:47:34.812Z,14.10
2018-09-09T00:50:09.124Z,14.10
2018-09-09T00:52:43.447Z,14.00
2018-09-09T00:55:12.454Z,14.00
2018-09-09T00:57:41.589Z,14.00
2018-09-09T01:00:10.564Z,13.90
2018-09-09T01:02:39.665Z,14.00
2018-09-09T01:05:09.105Z,14.00
2018-09-09T01:07:38.057Z,14.00
2018-09-09T01:10:07.102Z,14.00
2018-09-09T01:12:36.052Z,14.10
2018-09-09T01:15:05.775Z,14.10
2018-09-09T01:17:34.816Z,14.10
2018-09-09T01:20:04.177Z,14.10
2018-09-09T01:22:33.140Z,14.10
2018-09-09T01:25:02.093Z,14.20
2018-09-09T01:27:31.058Z,14.20
2018-09-09T01:30:00.073Z,14.30
2018-09-09T01:32:29.049Z,14.30
2018-09-09T01:34:58.029Z,14.30
2018-09-09T01:37:26.987Z,14.30
2018-09-09T01:39:56.426Z,14.40
2018-09-09T01:42:25.391Z,14.40
2018-09-09T01:44:54.357Z,14.40
2018-09-09T01:47:23.612Z,14.50
2018-09-09T01:49:52.753Z,14.50
2018-09-09T01:52:21.691Z,14.50
2018-09-09T01:54:50.883Z,14.50
2018-09-09T01:57:19.813Z,14.50
2018-09-09T01:59:48.878Z,14.50
2018-09-09T02:02:17.999Z,14.40
2018-09-09T02:04:47.575Z,14.40
2018-09-09T02:07:17.373Z,14.30
2018-09-09T02:09:46.281Z,14.30
2018-09-09T02:12:15.249Z,14.30
2018-09-09T02:14:44.193Z,14.30
2018-09-09T02:17:13.278Z,14.20
2018-09-09T02:19:42.235Z,14.20
2018-09-09T02:22:11.183Z,14.20
2018-09-09T02:24:40.112Z,14.20
2018-09-09T02:27:09.056Z,14.30
2018-09-09T02:29:38.081Z,14.30
2018-09-09T02:32:07.122Z,14.30
2018-09-09T02:34:36.068Z,14.40
2018-09-09T02:37:05.023Z,14.40
2018-09-09T02:39:34.329Z,14.40
2018-09-09T02:42:03.268Z,14.50
2018-09-09T02:44:32.185Z,14.50
2018-09-09T02:47:01.133Z,14.50
2018-09-09T02:49:30.058Z,14.50
2018-09-09T02:51:59.064Z,14.40
2018-09-09T02:54:28.006Z,14.30
2018-09-09T02:56:56.926Z,14.20
2018-09-09T02:59:25.838Z,14.10
2018-09-09T03:01:54.864Z,14.10
2018-09-09T03:04:23.784Z,14.00
2018-09-09T03:06:52.722Z,14.00
2018-09-09T03:09:21.704Z,14.00
2018-09-09T03:11:50.607Z,14.00
2018-09-09T03:14:19.542Z,14.10
2018-09-09T03:16:48.483Z,14.10
2018-09-09T03:19:17.590Z,14.30
2018-09-09T03:21:46.532Z,14.30
2018-09-09T03:24:15.428Z,14.40
2018-09-09T03:26:44.342Z,14.40
2018-09-09T03:29:13.374Z,14.40
2018-09-09T03:31:42.506Z,14.40
2018-09-09T03:34:11.440Z,14.50
2018-09-09T03:36:40.374Z,14.50
2018-09-09T03:39:10.152Z,14.50
2018-09-09T03:41:39.345Z,14.50
2018-09-09T03:44:08.260Z,14.50
2018-09-09T03:46:37.525Z,14.60
2018-09-09T03:49:06.530Z,14.60
2018-09-09T03:51:35.464Z,14.60
2018-09-09T03:54:04.775Z,14.50
2018-09-09T03:56:33.759Z,14.50
2018-09-09T03:59:03.028Z,14.40
2018-09-09T04:01:31.955Z,14.40
2018-09-09T04:04:01.017Z,14.40
2018-09-09T04:06:30.061Z,14.40
2018-09-09T04:08:59.095Z,14.40
2018-09-09T04:11:28.067Z,14.40
2018-09-09T04:13:57.031Z,14.40
2018-09-09T04:16:25.958Z,14.40
2018-09-09T04:18:54.879Z,14.40
2018-09-09T04:21:23.803Z,14.40
2018-09-09T04:23:52.793Z,14.40
2018-09-09T04:26:21.729Z,14.40
2018-09-09T04:28:50.730Z,14.40
2018-09-09T04:31:19.653Z,14.40
2018-09-09T04:33:48.693Z,14.40
2018-09-09T04:36:17.810Z,14.40
2018-09-09T04:38:46.737Z,14.40
2018-09-09T04:41:15.670Z,14.40
2018-09-09T04:43:44.617Z,14.40
2018-09-09T04:46:13.657Z,14.40
2018-09-09T04:48:42.750Z,14.50
2018-09-09T04:51:11.668Z,14.50
2018-09-09T04:53:40.720Z,14.50
2018-09-09T04:56:09.658Z,14.60
2018-09-09T04:58:38.651Z,14.60
2018-09-09T05:01:07.598Z,14.60
2018-09-09T05:03:36.536Z,14.60
2018-09-09T05:06:05.506Z,14.70
2018-09-09T05:08:34.450Z,14.80
2018-09-09T05:11:03.469Z,14.70
2018-09-09T05:13:32.370Z,14.80
2018-09-09T05:16:01.286Z,14.80
2018-09-09T05:18:30.605Z,14.80
2018-09-09T05:20:59.693Z,14.90
2018-09-09T05:23:28.614Z,14.90
2018-09-09T05:25:57.556Z,15.00
2018-09-09T05:28:26.535Z,15.00
2018-09-09T05:30:55.809Z,15.10
2018-09-09T05:33:24.740Z,15.20
2018-09-09T05:35:53.628Z,15.30
2018-09-09T05:38:22.674Z,15.40
2018-09-09T05:40:51.818Z,15.40
2018-09-09T05:43:20.720Z,15.50
2018-09-09T05:45:49.628Z,15.50
2018-09-09T05:48:18.560Z,15.50
2018-09-09T05:50:48.051Z,15.50
2018-09-09T05:53:16.994Z,15.50
2018-09-09T05:55:45.921Z,15.50
2018-09-09T05:58:14.886Z,15.60
2018-09-09T06:00:43.798Z,15.60
2018-09-09T06:03:12.865Z,15.60
2018-09-09T06:05:42.009Z,15.60
2018-09-09T06:08:11.099Z,15.70
2018-09-09T06:10:40.311Z,15.70
2018-09-09T06:13:09.245Z,15.70
2018-09-09T06:15:38.161Z,15.80
2018-09-09T06:18:06.989Z,15.90
2018-09-09T06:20:36.001Z,15.90
2018-09-09T06:23:05.343Z,16.00
2018-09-09T06:25:34.271Z,16.00
2018-09-09T06:28:03.191Z,16.10
2018-09-09T06:30:32.139Z,16.20
2018-09-09T06:33:01.160Z,16.20
2018-09-09T06:35:30.236Z,16.30
2018-09-09T06:37:59.275Z,16.40
2018-09-09T06:40:28.233Z,16.50
2018-09-09T06:42:57.349Z,16.60
2018-09-09T06:45:26.313Z,16.80
2018-09-09T06:47:55.306Z,17.00
2018-09-09T06:50:24.345Z,17.10
2018-09-09T06:52:53.409Z,17.20
2018-09-09T06:55:22.524Z,17.30
2018-09-09T06:57:51.668Z,17.40
2018-09-09T07:00:20.721Z,17.60
2018-09-09T07:02:49.671Z,17.70
2018-09-09T07:05:18.594Z,17.80
2018-09-09T07:07:47.620Z,17.90
2018-09-09T07:10:16.766Z,17.90
2018-09-09T07:12:45.778Z,18.10
2018-09-09T07:15:14.689Z,18.10
2018-09-09T07:17:43.678Z,18.10
2018-09-09T07:20:12.628Z,18.20
2018-09-09T07:22:41.713Z,18.20
2018-09-09T07:25:10.689Z,18.20
2018-09-09T07:27:39.656Z,18.30
2018-09-09T07:30:08.644Z,18.50
2018-09-09T07:32:37.735Z,18.50
2018-09-09T07:35:06.699Z,18.60
2018-09-09T07:37:35.705Z,18.70
2018-09-09T07:40:04.723Z,18.70
2018-09-09T07:42:33.667Z,18.70
2018-09-09T07:45:02.593Z,18.70
2018-09-09T07:47:31.601Z,18.70
2018-09-09T07:50:00.545Z,18.70
2018-09-09T07:52:29.457Z,18.80
2018-09-09T07:54:58.387Z,18.90
2018-09-09T07:57:27.376Z,19.00
2018-09-09T07:59:56.278Z,19.10
2018-09-09T08:02:25.314Z,19.10
2018-09-09T08:04:54.700Z,19.20
2018-09-09T08:07:23.611Z,19.30
2018-09-09T08:09:52.535Z,19.40
2018-09-09T08:12:21.469Z,19.50
2018-09-09T08:14:50.448Z,19.50
2018-09-09T08:17:19.494Z,19.50
2018-09-09T08:19:48.460Z,19.50
2018-09-09T08:22:17.620Z,19.50
2018-09-09T08:24:46.575Z,19.40
2018-09-09T08:27:15.501Z,19.30
2018-09-09T08:29:44.494Z,19.30
2018-09-09T08:32:13.440Z,19.30
2018-09-09T08:34:42.446Z,19.30
2018-09-09T08:37:11.549Z,19.30
2018-09-09T08:39:40.487Z,19.40
2018-09-09T08:42:09.461Z,19.40
2018-09-09T08:44:38.616Z,19.40
2018-09-09T08:47:07.702Z,19.50
2018-09-09T08:49:36.624Z,19.60
2018-09-09T08:52:05.663Z,19.60
2018-09-09T08:54:34.846Z,19.60
2018-09-09T08:57:03.803Z,19.60
2018-09-09T08:59:32.782Z,19.70
2018-09-09T09:02:01.717Z,19.70
2018-09-09T09:04:30.769Z,19.60
2018-09-09T09:06:59.672Z,19.60
2018-09-09T09:09:28.677Z,19.60
2018-09-09T09:11:58.104Z,19.60
2018-09-09T09:14:27.053Z,19.70
2018-09-09T09:16:56.053Z,19.70
2018-09-09T09:19:25.012Z,19.90
2018-09-09T09:21:54.105Z,19.90
2018-09-09T09:24:23.013Z,20.00
2018-09-09T09:26:52.151Z,20.20
2018-09-09T09:29:21.303Z,20.50
2018-09-09T09:31:50.422Z,20.80
2018-09-09T09:34:19.321Z,21.20
2018-09-09T09:36:48.234Z,21.40
2018-09-09T09:39:16.903Z,21.70
2018-09-09T09:41:45.766Z,21.80
2018-09-09T09:44:14.633Z,21.80
2018-09-09T09:46:43.257Z,21.90
2018-09-09T09:49:12.607Z,22.10
2018-09-09T09:51:41.784Z,22.20
2018-09-09T09:54:10.431Z,22.20
2018-09-09T09:56:39.076Z,22.30
2018-09-09T09:59:08.114Z,22.50
2018-09-09T10:01:36.808Z,22.50
2018-09-09T10:04:05.816Z,22.60
2018-09-09T10:06:34.591Z,22.70
2018-09-09T10:09:04.035Z,22.80
2018-09-09T10:11:32.971Z,23.00
2018-09-09T10:14:01.616Z,23.00
2018-09-09T10:16:30.249Z,22.80
2018-09-09T10:18:58.888Z,22.70
2018-09-09T10:21:27.547Z,22.60
2018-09-09T10:23:56.328Z,22.50
2018-09-09T10:26:25.086Z,22.30
2018-09-09T10:28:53.726Z,22.20
2018-09-09T10:31:22.424Z,22.00
2018-09-09T10:33:51.058Z,21.80
2018-09-09T10:36:19.722Z,21.70
2018-09-09T10:38:48.386Z,21.60
2018-09-09T10:41:17.481Z,21.50
2018-09-09T10:43:46.109Z,21.40
2018-09-09T10:46:14.912Z,21.40
2018-09-09T10:48:43.683Z,21.40
2018-09-09T10:51:12.451Z,21.40
2018-09-09T10:53:41.384Z,21.40
2018-09-09T10:56:10.026Z,21.40
2018-09-09T10:58:39.470Z,21.50
2018-09-09T11:01:08.480Z,21.40
2018-09-09T11:03:37.504Z,21.40
2018-09-09T11:06:06.470Z,21.40
2018-09-09T11:08:35.795Z,21.40
2018-09-09T11:11:05.503Z,21.40
2018-09-09T11:13:34.438Z,21.40
2018-09-09T11:16:03.080Z,21.50
2018-09-09T11:18:32.014Z,21.60
2018-09-09T11:21:00.616Z,21.70
2018-09-09T11:23:29.263Z,21.70
2018-09-09T11:25:57.915Z,21.80
2018-09-09T11:28:27.025Z,21.80
2018-09-09T11:30:55.947Z,21.80
2018-09-09T11:33:24.905Z,21.80
2018-09-09T11:35:53.860Z,21.80
2018-09-09T11:38:22.823Z,21.90
2018-09-09T11:40:51.920Z,21.90
2018-09-09T11:43:20.633Z,22.00
2018-09-09T11:45:49.813Z,22.00
2018-09-09T11:48:18.857Z,22.10
2018-09-09T11:50:47.766Z,22.20
2018-09-09T11:53:16.784Z,22.20
2018-09-09T11:55:45.983Z,22.20
2018-09-09T11:58:14.919Z,22.20
2018-09-09T12:00:43.890Z,22.30
2018-09-09T12:03:12.874Z,22.30
2018-09-09T12:05:41.917Z,22.50
2018-09-09T12:08:10.590Z,22.60
2018-09-09T12:10:39.234Z,22.80
2018-09-09T12:13:08.005Z,22.90
2018-09-09T12:15:36.971Z,22.90
2018-09-09T12:18:06.389Z,22.90
2018-09-09T12:20:35.038Z,23.00
2018-09-09T12:23:03.830Z,23.10
2018-09-09T12:25:32.471Z,23.00
2018-09-09T12:28:01.171Z,23.10
2018-09-09T12:30:29.835Z,23.10
2018-09-09T12:32:58.735Z,23.40
2018-09-09T12:35:27.369Z,23.60
2018-09-09T12:37:56.325Z,23.80
2018-09-09T12:40:25.101Z,24.00
2018-09-09T12:42:59.228Z,24.20
2018-09-09T12:45:33.316Z,24.40
2018-09-09T12:48:07.398Z,24.50
2018-09-09T12:50:36.208Z,24.80
2018-09-09T12:53:04.980Z,25.10
2018-09-09T12:55:33.693Z,25.40
2018-09-09T12:58:02.312Z,25.50
2018-09-09T13:00:30.964Z,25.40
2018-09-09T13:02:59.908Z,25.40
2018-09-09T13:05:28.546Z,25.50
2018-09-09T13:07:57.277Z,25.60
2018-09-09T13:10:26.017Z,25.80
2018-09-09T13:13:00.057Z,25.90
2018-09-09T13:15:28.700Z,25.80
2018-09-09T13:17:57.699Z,25.80
2018-09-09T13:20:26.336Z,26.00
2018-09-09T13:22:54.968Z,26.00
2018-09-09T13:25:23.682Z,26.00
2018-09-09T13:27:52.406Z,25.70
2018-09-09T13:30:21.464Z,25.70
2018-09-09T13:32:50.135Z,25.70
2018-09-09T13:35:18.862Z,25.80
2018-09-09T13:37:47.512Z,25.90
2018-09-09T13:40:16.587Z,25.90
2018-09-09T13:42:45.392Z,25.60
2018-09-09T13:45:14.438Z,25.40
2018-09-09T13:47:43.727Z,25.40
2018-09-09T13:50:13.072Z,25.50
2018-09-09T13:52:41.733Z,25.40
2018-09-09T13:55:10.619Z,25.40
2018-09-09T13:57:39.414Z,25.40
2018-09-09T14:00:08.154Z,25.60
2018-09-09T14:02:36.853Z,26.00
2018-09-09T14:05:05.576Z,26.20
2018-09-09T14:07:34.206Z,26.30
2018-09-09T14:10:02.926Z,26.30
2018-09-09T14:12:31.600Z,26.30
2018-09-09T14:15:00.346Z,26.30
2018-09-09T14:17:28.987Z,26.20
2018-09-09T14:19:57.657Z,26.30
2018-09-09T14:22:26.429Z,26.50
2018-09-09T14:24:55.204Z,26.40
2018-09-09T14:27:23.890Z,26.30
2018-09-09T14:29:52.876Z,26.20
2018-09-09T14:32:21.518Z,26.20
2018-09-09T14:34:50.174Z,26.10
2018-09-09T14:37:18.801Z,26.10
2018-09-09T14:39:47.429Z,26.10
2018-09-09T14:42:16.110Z,26.10
2018-09-09T14:44:44.758Z,26.10
2018-09-09T14:47:13.387Z,25.90
2018-09-09T14:49:42.071Z,25.70
2018-09-09T14:52:10.756Z,25.70
2018-09-09T14:54:39.426Z,25.80
2018-09-09T14:57:08.386Z,25.80
2018-09-09T14:59:37.082Z,25.80
2018-09-09T15:02:05.836Z,25.70
2018-09-09T15:04:34.552Z,25.50
2018-09-09T15:07:03.218Z,25.30
2018-09-09T15:09:31.950Z,25.20
2018-09-09T15:12:00.730Z,25.20
2018-09-09T15:14:29.398Z,25.20
2018-09-09T15:16:58.018Z,25.20
2018-09-09T15:19:26.678Z,25.10
2018-09-09T15:21:56.280Z,25.10
2018-09-09T15:24:24.944Z,25.10
2018-09-09T15:26:53.745Z,25.10
2018-09-09T15:29:22.530Z,25.10
2018-09-09T15:31:51.340Z,25.10
2018-09-09T15:34:19.989Z,25.10
2018-09-09T15:36:49.034Z,25.10
2018-09-09T15:39:18.081Z,25.10
2018-09-09T15:41:46.882Z,25.10
2018-09-09T15:44:15.596Z,25.10
2018-09-09T15:46:44.332Z,25.20
2018-09-09T15:49:13.032Z,25.20
2018-09-09T15:51:41.705Z,25.30
2018-09-09T15:54:10.518Z,25.30
2018-09-09T15:56:41.295Z,25.30
2018-09-09T15:59:10.000Z,25.20
2018-09-09T16:01:38.658Z,25.10
2018-09-09T16:04:07.307Z,25.00
2018-09-09T16:06:36.290Z,24.90
2018-09-09T16:09:07.461Z,24.80
2018-09-09T16:11:36.096Z,24.70
2018-09-09T16:14:04.756Z,24.60
2018-09-09T16:16:33.595Z,24.60
2018-09-09T16:19:02.694Z,24.50
2018-09-09T16:21:31.489Z,24.50
2018-09-09T16:24:00.421Z,24.50
2018-09-09T16:26:29.061Z,24.50
2018-09-09T16:28:57.899Z,24.40
2018-09-09T16:31:26.598Z,24.40
2018-09-09T16:33:55.343Z,24.30
2018-09-09T16:36:23.997Z,24.20
2018-09-09T16:38:52.621Z,24.00
2018-09-09T16:41:21.641Z,23.90
2018-09-09T16:43:50.818Z,23.80
2018-09-09T16:46:19.526Z,23.70
2018-09-09T16:48:48.273Z,23.70
2018-09-09T16:51:17.000Z,23.60
2018-09-09T16:53:45.923Z,23.60
2018-09-09T16:56:14.702Z,23.50
2018-09-09T16:58:43.912Z,23.40
2018-09-09T17:01:13.081Z,23.40
2018-09-09T17:03:41.908Z,23.40
2018-09-09T17:06:10.590Z,23.30
2018-09-09T17:08:39.234Z,23.20
2018-09-09T17:11:08.102Z,23.10
2018-09-09T17:13:36.873Z,23.00
2018-09-09T17:16:05.504Z,23.00
2018-09-09T17:18:34.126Z,23.00
2018-09-09T17:21:02.948Z,22.90
2018-09-09T17:23:31.622Z,22.90
2018-09-09T17:26:01.221Z,22.80
2018-09-09T17:28:29.884Z,22.70
2018-09-09T17:30:58.682Z,22.70
2018-09-09T17:33:27.461Z,22.60
2018-09-09T17:35:56.081Z,22.60
2018-09-09T17:38:24.745Z,22.50
2018-09-09T17:40:53.416Z,22.50
2018-09-09T17:43:22.080Z,22.40
2018-09-09T17:45:50.899Z,22.40
2018-09-09T17:48:19.547Z,22.30
2018-09-09T17:50:48.191Z,22.20
2018-09-09T17:53:16.841Z,22.20
2018-09-09T17:55:45.511Z,22.10
2018-09-09T17:58:14.161Z,22.10
2018-09-09T18:00:43.490Z,22.00
2018-09-09T18:03:12.168Z,22.00
2018-09-09T18:05:40.838Z,21.90
2018-09-09T18:08:10.721Z,21.80
2018-09-09T18:10:39.671Z,21.70
2018-09-09T18:13:08.321Z,21.70
2018-09-09T18:15:37.265Z,21.50
2018-09-09T18:18:06.303Z,21.40
2018-09-09T18:20:35.674Z,21.40
2018-09-09T18:23:04.785Z,21.30
2018-09-09T18:25:33.829Z,21.20
2018-09-09T18:28:02.845Z,21.10
2018-09-09T18:30:31.762Z,21.10
2018-09-09T18:33:00.903Z,21.00
2018-09-09T18:35:29.858Z,21.00
2018-09-09T18:37:59.029Z,21.00
2018-09-09T18:40:27.969Z,21.00
2018-09-09T18:42:56.966Z,21.00
2018-09-09T18:45:26.182Z,21.00
2018-09-09T18:47:55.397Z,20.90
2018-09-09T18:50:24.470Z,20.90
2018-09-09T18:52:53.788Z,20.90
2018-09-09T18:55:22.808Z,20.90
2018-09-09T18:57:51.830Z,20.90
2018-09-09T19:00:20.908Z,20.90
2018-09-09T19:02:49.908Z,20.90
2018-09-09T19:05:19.188Z,20.80
2018-09-09T19:07:48.142Z,20.80
2018-09-09T19:10:17.322Z,20.80
2018-09-09T19:12:46.399Z,20.80
2018-09-09T19:15:15.370Z,20.80
2018-09-09T19:17:44.328Z,20.70
2018-09-09T19:20:13.415Z,20.70
2018-09-09T19:22:42.442Z,20.60
2018-09-09T19:25:11.552Z,20.50
2018-09-09T19:27:40.512Z,20.40
2018-09-09T19:30:10.390Z,20.20
2018-09-09T19:32:45.834Z,20.00
2018-09-09T19:35:14.804Z,19.80
2018-09-09T19:37:43.856Z,19.70
2018-09-09T19:40:12.813Z,19.60
2018-09-09T19:42:41.758Z,19.50
2018-09-09T19:45:10.733Z,19.40
2018-09-09T19:47:40.461Z,19.30
2018-09-09T19:50:09.806Z,19.20
2018-09-09T19:52:38.761Z,19.10
2018-09-09T19:55:07.838Z,19.00
2018-09-09T19:57:36.831Z,19.00
2018-09-09T20:00:05.945Z,18.90
2018-09-09T20:02:35.269Z,18.80
2018-09-09T20:05:04.939Z,18.80
2018-09-09T20:07:33.917Z,18.70
2018-09-09T20:10:02.907Z,18.70
2018-09-09T20:12:31.885Z,18.60
2018-09-09T20:15:00.965Z,18.60
2018-09-09T20:17:30.147Z,18.60
2018-09-09T20:19:59.088Z,18.50
2018-09-09T20:22:28.053Z,18.50
2018-09-09T20:24:57.012Z,18.50
2018-09-09T20:27:25.987Z,18.40
2018-09-09T20:29:54.871Z,18.40
2018-09-09T20:32:23.825Z,18.40
2018-09-09T20:34:52.965Z,18.40
2018-09-09T20:37:22.219Z,18.40
2018-09-09T20:39:51.211Z,18.40
2018-09-09T20:42:20.143Z,18.40
2018-09-09T20:44:49.267Z,18.40
2018-09-09T20:47:18.353Z,18.30
2018-09-09T20:49:47.293Z,18.20
2018-09-09T20:52:16.255Z,18.20
2018-09-09T20:54:45.207Z,18.10
2018-09-09T20:57:14.313Z,17.90
2018-09-09T20:59:43.257Z,17.90
2018-09-09T21:02:12.278Z,17.80
2018-09-09T21:04:41.213Z,17.70
2018-09-09T21:07:10.241Z,17.70
2018-09-09T21:09:39.644Z,17.70
2018-09-09T21:12:08.774Z,17.60
2018-09-09T21:14:38.086Z,17.60
2018-09-09T21:17:07.542Z,17.50
2018-09-09T21:19:36.495Z,17.40
2018-09-09T21:22:05.608Z,17.40
2018-09-09T21:24:34.561Z,17.30
2018-09-09T21:27:03.492Z,17.30
2018-09-09T21:29:32.458Z,17.20
2018-09-09T21:32:01.454Z,17.20
2018-09-09T21:34:30.359Z,17.20
2018-09-09T21:36:59.315Z,17.10
2018-09-09T21:39:28.254Z,17.10
2018-09-09T21:41:57.206Z,17.00
2018-09-09T21:44:26.152Z,17.00
2018-09-09T21:46:55.048Z,17.00
2018-09-09T21:49:23.980Z,17.00
2018-09-09T21:51:52.964Z,16.90
2018-09-09T21:54:22.267Z,16.90
2018-09-09T21:56:51.195Z,16.90
2018-09-09T21:59:20.087Z,16.80
2018-09-09T22:01:54.713Z,16.80
2018-09-09T22:04:23.775Z,16.80
2018-09-09T22:06:52.726Z,16.80
2018-09-09T22:09:21.651Z,16.70
2018-09-09T22:11:50.599Z,16.70
2018-09-09T22:14:19.659Z,16.60
2018-09-09T22:16:48.584Z,16.60
2018-09-09T22:19:17.507Z,16.60
2018-09-09T22:21:48.489Z,16.50
2018-09-09T22:24:19.416Z,16.50
2018-09-09T22:26:48.720Z,16.50
2018-09-09T22:29:17.768Z,16.50
2018-09-09T22:31:46.679Z,16.40
2018-09-09T22:34:16.019Z,16.40
2018-09-09T22:36:44.980Z,16.40
2018-09-09T22:39:13.960Z,16.40
2018-09-09T22:41:42.866Z,16.40
2018-09-09T22:44:12.826Z,16.40
2018-09-09T22:46:42.722Z,16.30
2018-09-09T22:49:11.706Z,16.30
2018-09-09T22:51:40.679Z,16.20
2018-09-09T22:54:10.085Z,16.20
2018-09-09T22:56:39.026Z,16.20
2018-09-09T22:59:07.970Z,16.20
2018-09-09T23:01:37.398Z,16.10
2018-09-09T23:04:06.337Z,16.10
2018-09-09T23:06:35.257Z,16.10
2018-09-09T23:09:06.588Z,16.00
2018-09-09T23:11:35.565Z,16.00
2018-09-09T23:14:04.565Z,16.00
2018-09-09T23:16:33.512Z,16.00
2018-09-09T23:19:02.439Z,15.90
2018-09-09T23:21:31.489Z,15.90
2018-09-09T23:24:00.549Z,15.90
2018-09-09T23:26:29.597Z,15.90
2018-09-09T23:28:58.524Z,15.80
2018-09-09T23:31:27.463Z,15.80
2018-09-09T23:33:56.377Z,15.80
2018-09-09T23:36:25.303Z,15.70
2018-09-09T23:38:54.245Z,15.70
2018-09-09T23:41:23.241Z,15.70
2018-09-09T23:43:52.538Z,15.60
2018-09-09T23:46:21.536Z,15.60
2018-09-09T23:48:50.592Z,15.60
2018-09-09T23:51:19.522Z,15.60
2018-09-09T23:53:48.502Z,15.60
2018-09-09T23:56:17.553Z,15.50
2018-09-09T23:58:46.854Z,15.50
